Flight Track Log - Related Links

Times and Time Zones

All times are in EDT time to prevent confusion due to time zone crossing. See the SWA709 flight status page for this flight to view local times or setup timezone preferences in your user account.

Time Position Orientation Groundspeed Altitude Reporting Facility
EDT Latitude Longitude Course Direction KTS MPH feet Rate Location/Type
Thu 07:27:58 AM 30.2694 -97.7558 278° West 236 272 5,700  Level Houston Center
Thu 07:28:59 AM 30.2789 -97.8436 277° West 268 308 9,200 2,852 Climbing Houston Center
Thu 07:30:00 AM 30.2933 -97.9561 278° West 301 346 11,500 2,705 Climbing Houston Center
Thu 07:31:01 AM 30.3147 -98.0744 282° West 367 422 14,700 3,049 Climbing Houston Center
Thu 07:32:00 AM 30.4167 -97.9804 270° West  Level FlightAware Approximate
Thu 07:32:02 AM 30.3353 -98.1956 281° West 373 429 17,700  Level Houston Center
Thu 07:33:00 AM 30.4286 -98.1011 278° West  Level FlightAware Approximate
Thu 07:33:03 AM 30.3567 -98.3194 281° West 385 443 20,100  Level Houston Center
Thu 07:34:04 AM 30.3775 -98.4439 281° West 390 449 22,600 2,262 Climbing Houston Center
Thu 07:35:05 AM 30.3969 -98.5722 280° West 399 459 24,700 1,967 Climbing Houston Center
Thu 07:36:06 AM 30.4194 -98.7047 281° West 412 474 26,600 1,770 Climbing Houston Center
Thu 07:37:07 AM 30.4425 -98.8386 281° West 419 482 28,300 1,918 Climbing Houston Center
Thu 07:38:08 AM 30.4656 -98.9725 281° West 419 482 30,500 1,967 Climbing Houston Center
Thu 07:39:09 AM 30.4856 -99.1036 280° West 410 472 32,300 1,623 Climbing Houston Center
Thu 07:40:10 AM 30.5058 -99.2267 281° West 405 466 33,800 1,672 Climbing Houston Center
Thu 07:41:11 AM 30.5264 -99.3531 281° West 399 459 35,700 1,820 Climbing Houston Center
Thu 07:42:12 AM 30.5458 -99.4722 281° West 381 438 37,500 1,131 Climbing Houston Center
Thu 07:43:13 AM 30.5636 -99.5883 280° West 369 425 38,000 246 Climbing Houston Center
Thu 07:44:14 AM 30.5814 -99.7056 280° West 370 426 38,000  Level Houston Center
Thu 07:45:15 AM 30.5994 -99.8225 280° West 370 426 38,000  Level Houston Center
Thu 07:46:16 AM 30.6172 -99.9628 278° West 370 426 38,000  Level Houston Center
Thu 07:47:17 AM 30.6306 -100.0806 278° West 371 427 38,000  Level Houston Center
Thu 07:48:18 AM 30.6444 -100.1961 278° West 367 422 38,000  Level Houston Center
Thu 07:49:19 AM 30.6592 -100.3150 278° West 374 430 38,000  Level Houston Center
Thu 07:50:21 AM 30.6739 -100.4294 279° West 366 421 38,000  Level Houston Center
Thu 07:51:22 AM 30.6872 -100.5472 278° West 369 425 38,000  Level Houston Center
Thu 07:52:23 AM 30.7008 -100.6672 278° West 376 433 38,000  Level Houston Center
Thu 07:53:24 AM 30.7139 -100.7836 277° West 371 427 38,000  Level Houston Center
Thu 07:54:25 AM 30.7275 -100.9011 278° West 372 428 38,000  Level Houston Center
Thu 07:55:26 AM 30.7436 -101.0439 278° West 375 432 38,000  Level Houston Center
Thu 07:56:27 AM 30.7586 -101.1622 278° West 373 429 38,000  Level Houston Center
Thu 07:57:29 AM 30.7725 -101.2803 278° West 372 428 38,000  Level Houston Center
Thu 07:58:30 AM 30.7850 -101.4006 277° West 376 433 38,000  Level Houston Center
Thu 07:59:31 AM 30.7981 -101.5203 277° West 375 432 38,000  Level Houston Center
Thu 08:00:32 AM 30.8125 -101.6456 278° West 370 426 38,000  Level Houston Center
Thu 08:00:52 AM 30.8153 -101.6672 278° West 369 425 38,000  Level Albuquerque Center
Thu 08:01:52 AM 30.8281 -101.7856 277° West 369 425 38,000  Level Albuquerque Center
Thu 08:02:52 AM 30.8403 -101.9039 277° West 367 422 38,000  Level Albuquerque Center
Thu 08:03:53 AM 30.8536 -102.0206 278° West 366 421 38,000  Level Albuquerque Center
Thu 08:04:53 AM 30.8650 -102.1386 276° West 365 420 38,000  Level Albuquerque Center
Thu 08:05:53 AM 30.8775 -102.2564 277° West 365 420 38,000  Level Albuquerque Center
Thu 08:06:54 AM 30.8897 -102.3756 277° West 367 422 38,000  Level Albuquerque Center
Thu 08:07:54 AM 30.9028 -102.4947 277° West 369 425 38,000  Level Albuquerque Center
Thu 08:08:55 AM 30.9353 -102.6117 288° West 378 435 38,000  Level Albuquerque Center
Thu 08:09:55 AM 30.9731 -102.7267 291° West 378 435 38,000  Level Albuquerque Center
Thu 08:10:56 AM 31.0119 -102.8431 291° West 381 438 38,000  Level Albuquerque Center
Thu 08:11:56 AM 31.0503 -102.9569 291° West 380 437 38,000  Level Albuquerque Center
Thu 08:12:56 AM 31.0961 -103.0958 291° West 381 438 38,000  Level Albuquerque Center
Thu 08:13:57 AM 31.1331 -103.2100 291° West 379 436 38,000  Level Albuquerque Center
Thu 08:14:57 AM 31.1719 -103.3228 292° West 376 433 38,000  Level Albuquerque Center
Thu 08:15:58 AM 31.2075 -103.4358 290° West 373 429 38,000  Level Albuquerque Center
Thu 08:16:58 AM 31.2444 -103.5503 291° West 376 433 38,000  Level Albuquerque Center
Thu 08:17:59 AM 31.2814 -103.6639 291° West 377 434 38,000  Level Albuquerque Center
Thu 08:18:59 AM 31.3178 -103.7731 291° West 377 434 38,000  Level Albuquerque Center
Thu 08:20:00 AM 31.3533 -103.8875 290° West 378 435 38,000  Level Albuquerque Center
Thu 08:21:00 AM 31.3911 -104.0019 291° West 378 435 38,000  Level Albuquerque Center
Thu 08:22:01 AM 31.4289 -104.1164 291° West 378 435 38,000  Level Albuquerque Center
Thu 08:23:01 AM 31.4656 -104.2300 291° West 376 433 38,000  Level Albuquerque Center
Thu 08:24:02 AM 31.5008 -104.3428 290° West 374 430 38,000  Level Albuquerque Center
Thu 08:25:02 AM 31.5372 -104.4550 291° West 372 428 38,000  Level Albuquerque Center
Thu 08:26:03 AM 31.5725 -104.5658 291° West 369 425 38,000  Level Albuquerque Center
Thu 08:27:04 AM 31.6078 -104.6769 290° West 366 421 38,000  Level Albuquerque Center
Thu 08:28:04 AM 31.6436 -104.7886 291° West 367 422 38,000  Level Albuquerque Center
Thu 08:29:05 AM 31.6783 -104.9000 290° West 367 422 38,000  Level Albuquerque Center
Thu 08:30:05 AM 31.7203 -105.0353 290° West 369 425 38,000  Level Albuquerque Center
Thu 08:31:06 AM 31.7567 -105.1489 291° West 373 429 38,000  Level Albuquerque Center
Thu 08:32:06 AM 31.7911 -105.2628 290° West 372 428 38,000  Level Albuquerque Center
Thu 08:33:07 AM 31.8264 -105.3800 290° West 380 437 38,000  Level Albuquerque Center
Thu 08:34:07 AM 31.8614 -105.4931 290° West 373 429 38,000  Level Albuquerque Center
Thu 08:35:08 AM 31.8956 -105.6069 289° West 371 427 38,000  Level Albuquerque Center
Thu 08:36:08 AM 31.9308 -105.7217 290° West 375 432 38,000  Level Albuquerque Center
Thu 08:37:09 AM 31.9656 -105.8358 290° West 373 429 38,000  Level Albuquerque Center
Thu 08:38:10 AM 32.0003 -105.9464 290° West 374 430 38,000  Level Albuquerque Center
Thu 08:39:10 AM 32.0344 -106.0617 289° West 374 430 38,000  Level Albuquerque Center
Thu 08:40:11 AM 32.0697 -106.1778 290° West 376 433 38,000  Level Albuquerque Center
Thu 08:41:11 AM 32.1044 -106.2928 290° West 375 432 38,000  Level Albuquerque Center
Thu 08:42:12 AM 32.1394 -106.4106 289° West 380 437 38,000  Level Albuquerque Center
Thu 08:43:12 AM 32.1742 -106.5264 290° West 376 433 38,000  Level Albuquerque Center
Thu 08:44:13 AM 32.2089 -106.6442 289° West 378 435 38,000  Level Albuquerque Center
Thu 08:45:13 AM 32.2436 -106.7606 289° West 377 434 38,000  Level Albuquerque Center
Thu 08:46:14 AM 32.2867 -106.8967 291° West 376 433 38,000  Level Albuquerque Center
Thu 08:47:15 AM 32.3583 -106.9967 310° West 398 458 38,000  Level Albuquerque Center
Thu 08:48:15 AM 32.4336 -107.0961 312° West 403 464 38,000  Level Albuquerque Center
Thu 08:49:16 AM 32.5100 -107.2008 311° West 405 466 38,000  Level Albuquerque Center
Thu 08:50:16 AM 32.5703 -107.2844 311° West 402 463 38,000  Level Albuquerque Center
Thu 08:51:17 AM 32.6586 -107.4019 312° West 402 463 38,000  Level Albuquerque Center
Thu 08:52:17 AM 32.7208 -107.4869 311° West 400 460 38,000  Level Albuquerque Center
Thu 08:53:18 AM 32.7939 -107.5861 311° West 398 458 38,000  Level Albuquerque Center
Thu 08:54:18 AM 32.8658 -107.6836 311° West 395 455 38,000  Level Albuquerque Center
Thu 08:55:19 AM 32.9392 -107.7822 312° West 397 457 38,000  Level Albuquerque Center
Thu 08:56:20 AM 33.0108 -107.8819 311° West 398 458 38,000  Level Albuquerque Center
Thu 08:57:20 AM 33.0847 -107.9803 312° West 398 458 38,000  Level Albuquerque Center
Thu 08:58:21 AM 33.1725 -108.0994 311° West 398 458 38,000  Level Albuquerque Center
Thu 08:59:21 AM 33.2342 -108.1853 311° West 398 458 38,000  Level Albuquerque Center
Thu 09:00:22 AM 33.3058 -108.2836 311° West 397 457 38,000  Level Albuquerque Center
Thu 09:01:22 AM 33.3911 -108.4003 311° West 394 453 38,000  Level Albuquerque Center
Thu 09:02:23 AM 33.4611 -108.4983 311° West 394 453 38,000  Level Albuquerque Center
Thu 09:03:24 AM 33.5333 -108.5972 311° West 397 457 38,000  Level Albuquerque Center
Thu 09:04:24 AM 33.6061 -108.6975 311° West 400 460 38,000  Level Albuquerque Center
Thu 09:05:25 AM 33.6772 -108.7981 310° West 401 461 38,000  Level Albuquerque Center
Thu 09:06:25 AM 33.7500 -108.9008 310° West 405 466 38,000  Level Albuquerque Center
Thu 09:07:26 AM 33.8222 -109.0033 310° West 406 467 38,000  Level Albuquerque Center
Thu 09:08:27 AM 33.8944 -109.1042 311° West 405 466 38,000  Level Albuquerque Center
Thu 09:09:27 AM 33.9669 -109.2067 310° West 405 466 38,000  Level Albuquerque Center
Thu 09:10:28 AM 34.0547 -109.3311 310° West 408 470 38,000  Level Albuquerque Center
Thu 09:11:29 AM 34.1269 -109.4331 311° West 407 468 38,000  Level Albuquerque Center
Thu 09:12:30 AM 34.1975 -109.5342 310° West 406 467 38,000  Level Albuquerque Center
Thu 09:13:30 AM 34.2689 -109.6361 310° West 409 471 38,000  Level Albuquerque Center
Thu 09:14:31 AM 34.3519 -109.7572 310° West 414 476 38,000  Level Albuquerque Center
Thu 09:15:32 AM 34.4225 -109.8592 310° West 413 475 38,000  Level Albuquerque Center
Thu 09:16:33 AM 34.4928 -109.9597 310° West 409 471 38,000  Level Albuquerque Center
Thu 09:17:33 AM 34.5753 -110.0808 310° West 412 474 38,000  Level Albuquerque Center
Thu 09:18:34 AM 34.6475 -110.1853 310° West 418 481 38,000  Level Albuquerque Center
Thu 09:19:35 AM 34.7208 -110.2917 310° West 424 488 38,000  Level Albuquerque Center
Thu 09:20:36 AM 34.8047 -110.4147 310° West 423 487 38,000  Level Albuquerque Center
Thu 09:21:37 AM 34.8744 -110.5169 310° West 416 479 38,000  Level Albuquerque Center
Thu 09:22:38 AM 34.9422 -110.6197 309° West 411 473 38,000  Level Albuquerque Center
Thu 09:23:38 AM 35.0239 -110.7394 310° West 409 471 38,000  Level Albuquerque Center
Thu 09:24:39 AM 35.0864 -110.8486 305° West 413 475 38,000  Level Albuquerque Center
Thu 09:25:40 AM 35.1428 -110.9603 302° West 407 468 38,000  Level Albuquerque Center
Thu 09:26:41 AM 35.2078 -111.0919 301° West 407 468 38,000  Level Albuquerque Center
Thu 09:27:42 AM 35.2653 -111.2150 300° West 415 478 38,000  Level Albuquerque Center
Thu 09:28:43 AM 35.3197 -111.3239 302° West 408 470 38,000  Level Albuquerque Center
Thu 09:29:44 AM 35.3800 -111.4492 301° West 414 476 38,000  Level Albuquerque Center
Thu 09:30:45 AM 35.4383 -111.5711 300° West 419 482 38,000 -197 Level Albuquerque Center
Thu 09:31:46 AM 35.4972 -111.6914 301° West 416 479 37,600 -639 Descending Albuquerque Center
Thu 09:32:47 AM 35.5556 -111.8142 300° West 418 481 36,700 -787 Descending Albuquerque Center
Thu 09:33:48 AM 35.5933 -111.9497 289° West 427 491 36,000 -344 Descending Albuquerque Center
Thu 09:34:49 AM 35.5961 -112.0881 271° West 410 472 36,000  Level Albuquerque Center
Thu 09:35:44 AM 35.6006 -112.2253 272° West 407 468 36,000  Level Los Angeles Center
Thu 09:36:51 AM 35.6039 -112.3869 271° West 400 460 36,000  Level Albuquerque Center
Thu 09:37:47 AM 35.6061 -112.4964 271° West 402 463 36,000  Level Los Angeles Center
Thu 09:38:48 AM 35.6100 -112.6525 272° West 400 460 36,000  Level Los Angeles Center
Thu 09:39:50 AM 35.6128 -112.7889 271° West 400 460 36,000 -878 Level Los Angeles Center
Thu 09:40:51 AM 35.6153 -112.9258 271° West 399 459 34,200 -1,770 Descending Los Angeles Center
Thu 09:41:52 AM 35.6175 -113.0472 271° West 395 455 32,400 -2,098 Descending Los Angeles Center
Thu 09:42:54 AM 35.6197 -113.2042 271° West 387 445 29,900 -2,049 Descending Los Angeles Center
Thu 09:43:55 AM 35.6214 -113.3144 271° West 378 435 28,200 -1,951 Descending Los Angeles Center
Thu 09:44:57 AM 35.6231 -113.4578 271° West 356 410 25,900 -2,000 Descending Los Angeles Center
Thu 09:45:58 AM 35.6278 -113.5750 273° West 346 398 24,100 -1,659 Descending Los Angeles Center
Thu 09:47:00 AM 35.6456 -113.6911 281° West 348 400 22,500 -1,707 Descending Los Angeles Center
Thu 09:48:01 AM 35.6642 -113.8183 280° West 375 432 20,600 -2,098 Descending Los Angeles Center
Thu 09:49:03 AM 35.6825 -113.9486 280° West 387 445 18,200 -2,341 Descending Los Angeles Center
Thu 09:50:04 AM 35.6992 -114.0758 279° West 379 436 15,800 -2,447 Descending Los Angeles Center
Thu 09:50:46 AM 35.7106 -114.1744 278° West 372 428 14,000 -2,516 Descending Los Angeles Center
Thu 09:51:06 AM 35.7203 -114.2206 285° West 366 421 13,200 -1,407 Descending Los Angeles Center
Thu 09:52:07 AM 35.7356 -114.3381 279° West 351 404 12,100 -585 Descending Los Angeles Center
Thu 09:53:09 AM 35.7917 -114.4050 316° Northwest 310 357 12,000 -100 Descending Los Angeles Center
Thu 09:54:07 AM 35.8756 -114.4453 339° North 300 345 11,900 -683 Descending Los Angeles Center
Thu 09:55:12 AM 35.9464 -114.4775 340° North 296 341 10,600 -942 Descending Los Angeles Center
Thu 09:56:08 AM 36.0231 -114.5150 338° Northwest 268 308 10,000 -378 Descending Los Angeles Center
Thu 09:57:03 AM 36.0486 -114.5811 296° West 255 293 9,900 -609 Descending Los Angeles Center
Thu 09:58:16 AM 36.0672 -114.6839 283° West 250 288 8,700 -939 Descending Los Angeles Center
Thu 09:58:58 AM 36.0758 -114.7425 280° West 249 287 8,100 -677 Descending Los Angeles Center
Thu 09:59:18 AM 36.0783 -114.7672 277° West 249 287 8,000 -1,397 Descending Los Angeles Center
Thu 10:00:11 AM 36.0775 -114.8483 269° West 254 292 6,400 -1,500 Descending Los Angeles Center
Thu 10:01:18 AM 36.0778 -114.9386 270° West 219 252 5,000 -1,125 Descending Los Angeles Center
Thu 10:02:19 AM 36.0772 -115.0056 269° West 193 222 4,000 -939 Descending Los Angeles Center
Thu 10:03:13 AM 36.0756 -115.0567 268° West 166 191 3,200 -843 Descending Los Angeles Center
Thu 10:04:20 AM 36.0753 -115.1153 270° West 146 168 2,300 -806 Descending Los Angeles Center
Thu 10:06:00 AM 36.0667 -115.1500 270° West  Level FlightAware Approximate

Login

Don't have an account? Register now (free) for customized features, flight alerts, and more!